Time;durP1;ratioP1;P1;durP2;ratioP2;P2;SDS_P1;SDS_P2;PMS_P1;PMS_P2;Temp;Humidity;BMP_temperature;BMP_pressure;BME280_temperature;BME280_humidity;BME280_pressure;Samples;Min_cycle;Max_cycle;Signal;HPM_P1;HPM_P2
2022/09/27 00:01:38;;;;;;;;;;;;;;;;;;4363271;32;20469;-68
2022/09/27 00:04:03;;;;;;;8.95;1.62;;;;;;;;;;4363508;32;19970;-68
2022/09/27 00:06:30;;;;;;;11.48;2.00;;;;;;;;;;4362251;32;20424;-69
2022/09/27 00:08:55;;;;;;;7.97;1.62;;;;;;;;;;4363226;32;20462;-69
2022/09/27 00:11:20;;;;;;;;;;;;;;;;;;4348265;33;20027;-69
2022/09/27 00:13:45;;;;;;;4.80;1.48;;;;;;;;;;4362406;32;19938;-69
2022/09/27 00:16:11;;;;;;;9.45;1.60;;;;;;;;;;4363809;32;20067;-69
2022/09/27 00:18:36;;;;;;;6.82;1.27;;;;;;;;;;4361594;32;20077;-69
2022/09/27 00:21:01;;;;;;;;;;;;;;;;;;4363489;32;20074;-69
2022/09/27 00:23:26;;;;;;;6.55;1.60;;;;;;;;;;4361744;33;19973;-69
2022/09/27 00:25:55;;;;;;;13.25;1.95;;;;;;;;;;4349637;32;20036;-68
2022/09/27 00:28:20;;;;;;;9.98;1.87;;;;;;;;;;4362142;32;20027;-68
2022/09/27 00:30:45;;;;;;;;;;;;;;;;;;4362923;32;20054;-68
2022/09/27 00:33:11;;;;;;;10.63;2.12;;;;;;;;;;4361390;33;19992;-69
2022/09/27 00:35:36;;;;;;;12.68;1.90;;;;;;;;;;4348040;33;20035;-69
2022/09/27 00:38:01;;;;;;;;;;;;;;;;;;4362894;32;20081;-69
2022/09/27 00:40:27;;;;;;;10.27;1.92;;;;;;;;;;4361909;32;20332;-69
2022/09/27 00:42:52;;;;;;;;;;;;;;;;;;4348087;33;20039;-69
2022/09/27 00:45:17;;;;;;;13.43;2.25;;;;;;;;;;4348766;33;19954;-69
2022/09/27 00:47:42;;;;;;;13.90;2.70;;;;;;;;;;4362868;32;20031;-69
2022/09/27 00:50:07;;;;;;;;;;;;;;;;;;4362271;32;20043;-69
2022/09/27 00:52:54;;;;;;;10.55;2.55;;;;;;;;;;4362661;32;20305;-69
2022/09/27 00:55:22;;;;;;;17.05;2.87;;;;;;;;;;4362884;32;20480;-69
2022/09/27 00:57:48;;;;;;;13.02;2.12;;;;;;;;;;4360693;32;20031;-69
2022/09/27 01:00:14;;;;;;;;;;;;;;;;;;4361004;33;20083;-69
2022/09/27 01:02:41;;;;;;;8.95;1.75;;;;;;;;;;4360975;32;19968;-69
2022/09/27 01:05:07;;;;;;;13.77;2.42;;;;;;;;;;4362824;32;20093;-68
2022/09/27 01:07:33;;;;;;;16.23;2.78;;;;;;;;;;4360664;32;20034;-68
2022/09/27 01:09:58;;;;;;;;;;;;;;;;;;4361307;33;20031;-68
2022/09/27 01:12:27;;;;;;;7.15;1.98;;;;;;;;;;4360639;33;19980;-68
2022/09/27 01:15:04;;;;;;;11.60;2.67;;;;;;;;;;4362745;32;20422;-70
2022/09/27 01:17:32;;;;;;;13.43;2.60;;;;;;;;;;4348495;32;20030;-68
2022/09/27 01:20:16;;;;;;;14.27;2.90;;;;;;;;;;4360431;32;20081;-70
2022/09/27 01:22:41;;;;;;;15.27;2.40;;;;;;;;;;4361797;32;20059;-69
2022/09/27 01:25:07;;;;;;;;;;;;;;;;;;4361270;32;20073;-68
2022/09/27 01:27:51;;;;;;;23.20;3.40;;;;;;;;;;4347461;33;20248;-69
2022/09/27 01:30:21;;;;;;;16.62;2.17;;;;;;;;;;4362080;32;20102;-68
2022/09/27 01:33:15;;;;;;;8.43;2.42;;;;;;;;;;4347655;33;20046;-67
2022/09/27 01:35:56;;;;;;;18.77;2.83;;;;;;;;;;4349092;32;20406;-67
2022/09/27 01:38:25;;;;;;;19.17;2.45;;;;;;;;;;4360159;32;20074;-67
2022/09/27 01:40:53;;;;;;;13.73;2.78;;;;;;;;;;4360516;33;20031;-68
2022/09/27 01:43:23;;;;;;;14.80;2.70;;;;;;;;;;4360670;32;20043;-68
2022/09/27 01:46:02;;;;;;;8.98;2.40;;;;;;;;;;4360342;32;20429;-68
2022/09/27 01:48:33;;;;;;;17.62;2.75;;;;;;;;;;4361620;32;20035;-69
2022/09/27 01:51:10;;;;;;;17.75;2.58;;;;;;;;;;4361753;32;20061;-69
2022/09/27 01:53:40;;;;;;;13.90;3.15;;;;;;;;;;4359697;32;20449;-69
2022/09/27 01:56:08;;;;;;;22.25;3.90;;;;;;;;;;4353978;33;20118;-69
2022/09/27 01:58:38;;;;;;;18.05;2.65;;;;;;;;;;4361038;32;20039;-67
2022/09/27 02:01:04;;;;;;;20.05;3.35;;;;;;;;;;4346311;33;20082;-68
2022/09/27 02:03:30;;;;;;;;;;;;;;;;;;4360464;33;20058;-68
2022/09/27 02:06:00;;;;;;;24.73;2.50;;;;;;;;;;4361000;32;19949;-68
2022/09/27 02:08:29;;;;;;;17.10;2.40;;;;;;;;;;4360643;32;20088;-68
2022/09/27 02:10:56;;;;;;;15.98;2.55;;;;;;;;;;4361763;32;20031;-68
2022/09/27 02:13:24;;;;;;;19.10;3.67;;;;;;;;;;4359496;33;20072;-68
2022/09/27 02:15:59;;;;;;;28.60;2.85;;;;;;;;;;4359859;32;20047;-68
2022/09/27 02:18:28;;;;;;;21.00;3.55;;;;;;;;;;4360560;32;20031;-68
2022/09/27 02:20:56;;;;;;;18.37;2.83;;;;;;;;;;4361502;32;20385;-67
2022/09/27 02:23:39;;;;;;;19.85;2.95;;;;;;;;;;4360110;32;20035;-68
2022/09/27 02:26:15;;;;;;;15.68;2.28;;;;;;;;;;4360811;32;20047;-68
2022/09/27 02:28:48;;;;;;;23.25;3.03;;;;;;;;;;4359778;32;20027;-69
2022/09/27 02:31:13;;;;;;;15.07;3.25;;;;;;;;;;4360655;32;20027;-68
2022/09/27 02:33:38;;;;;;;;;;;;;;;;;;4361547;32;20090;-68
2022/09/27 02:36:04;;;;;;;23.02;3.10;;;;;;;;;;4360373;32;19945;-68
2022/09/27 02:38:29;;;;;;;;;;;;;;;;;;4359259;33;20178;-70
2022/09/27 02:40:54;;;;;;;18.55;2.40;;;;;;;;;;4359438;33;19942;-68
2022/09/27 02:43:19;;;;;;;;;;;;;;;;;;4361240;33;20026;-68
2022/09/27 02:45:44;;;;;;;7.37;1.95;;;;;;;;;;4359488;33;19938;-68
2022/09/27 02:48:09;;;;;;;;;;;;;;;;;;4359970;33;20136;-68
2022/09/27 02:50:53;;;;;;;10.48;1.80;;;;;;;;;;4361243;33;19934;-68
2022/09/27 02:53:30;;;;;;;7.65;2.00;;;;;;;;;;4359421;33;20436;-67
2022/09/27 02:55:56;;;;;;;9.63;2.25;;;;;;;;;;4359833;33;20035;-68
2022/09/27 02:58:21;;;;;;;;;;;;;;;;;;4361325;33;20111;-68
2022/09/27 03:01:01;;;;;;;7.40;1.58;;;;;;;;;;4345782;33;20001;-67
2022/09/27 03:03:29;;;;;;;9.73;1.70;;;;;;;;;;4360753;33;20380;-69
2022/09/27 03:06:00;;;;;;;7.40;1.52;;;;;;;;;;4361462;33;20118;-67
2022/09/27 03:08:25;;;;;;;12.23;2.08;;;;;;;;;;4346648;33;20397;-68
2022/09/27 03:10:50;;;;;;;;;;;;;;;;;;4345944;33;20094;-68
2022/09/27 03:13:15;;;;;;;9.75;1.52;;;;;;;;;;4361289;33;19946;-68
2022/09/27 03:15:41;;;;;;;;;;;;;;;;;;4361493;33;20199;-67
2022/09/27 03:18:06;;;;;;;10.82;1.67;;;;;;;;;;4359425;33;19974;-68
2022/09/27 03:20:31;;;;;;;12.13;1.85;;;;;;;;;;4360135;33;20372;-67
2022/09/27 03:22:57;;;;;;;;;;;;;;;;;;4360096;33;20035;-69
2022/09/27 03:25:22;;;;;;;6.90;2.20;;;;;;;;;;4359324;33;19961;-69
2022/09/27 03:27:47;;;;;;;8.75;1.52;;;;;;;;;;4359327;33;20346;-66
2022/09/27 03:30:13;;;;;;;5.32;1.25;;;;;;;;;;4361313;33;20031;-67
2022/09/27 03:32:38;;;;;;;;;;;;;;;;;;4359895;33;20031;-68
2022/09/27 03:35:03;;;;;;;11.02;2.28;;;;;;;;;;4360469;33;19930;-67
2022/09/27 03:37:29;;;;;;;20.85;4.18;;;;;;;;;;4359950;33;20112;-68
2022/09/27 03:39:54;;;;;;;;;;;;;;;;;;4358430;32;20043;-68
2022/09/27 03:42:19;;;;;;;9.23;2.95;;;;;;;;;;4345774;33;19935;-68
2022/09/27 03:44:44;;;;;;;8.25;3.15;;;;;;;;;;4361173;33;20047;-68
2022/09/27 03:47:10;;;;;;;;;;;;;;;;;;4361115;33;20039;-68
2022/09/27 03:49:35;;;;;;;7.47;1.60;;;;;;;;;;4362438;32;19976;-68
2022/09/27 03:52:00;;;;;;;;;;;;;;;;;;4363102;32;20028;-70
2022/09/27 03:54:25;;;;;;;8.52;2.30;;;;;;;;;;4362586;32;19982;-68
2022/09/27 03:56:50;;;;;;;;;;;;;;;;;;4363660;32;20127;-69
2022/09/27 03:59:16;;;;;;;11.10;2.08;;;;;;;;;;4362270;32;20307;-68
2022/09/27 04:01:43;;;;;;;11.85;2.30;;;;;;;;;;4361816;32;20070;-67
2022/09/27 04:04:09;;;;;;;13.82;2.35;;;;;;;;;;4361427;33;20035;-68
2022/09/27 04:06:34;;;;;;;;;;;;;;;;;;4362900;32;20074;-69
2022/09/27 04:08:59;;;;;;;7.47;1.70;;;;;;;;;;4361162;33;20284;-68
2022/09/27 04:11:25;;;;;;;12.43;1.83;;;;;;;;;;4362664;32;20031;-68
2022/09/27 04:13:50;;;;;;;8.50;2.33;;;;;;;;;;4362491;32;20058;-68
2022/09/27 04:16:15;;;;;;;;;;;;;;;;;;4363677;32;20027;-68
2022/09/27 04:18:40;;;;;;;8.38;1.60;;;;;;;;;;4362049;32;19981;-68
2022/09/27 04:21:05;;;;;;;;;;;;;;;;;;4362377;32;20127;-68
2022/09/27 04:23:31;;;;;;;6.45;1.67;;;;;;;;;;4349245;32;19984;-69
2022/09/27 04:25:56;;;;;;;;;;;;;;;;;;4361753;32;20024;-68
2022/09/27 04:28:22;;;;;;;14.90;2.75;;;;;;;;;;4363289;32;19970;-69
2022/09/27 04:30:47;;;;;;;;;;;;;;;;;;4363219;32;20082;-69
2022/09/27 04:33:13;;;;;;;6.13;1.80;;;;;;;;;;4363011;32;19939;-69
2022/09/27 04:38:22;;;;;;;6.28;1.55;;;;;;;;;;4361122;32;19992;-69
2022/09/27 04:40:47;;;;;;;;;;;;;;;;;;4363277;32;20032;-68
2022/09/27 04:43:13;;;;;;;10.98;3.55;;;;;;;;;;4361311;33;19934;-68
2022/09/27 04:45:38;;;;;;;9.90;2.45;;;;;;;;;;4360839;33;20093;-68
2022/09/27 04:48:03;;;;;;;;;;;;;;;;;;4363270;32;20372;-67
2022/09/27 04:50:28;;;;;;;7.90;2.25;;;;;;;;;;4361094;33;20046;-68
2022/09/27 04:52:53;;;;;;;13.60;2.80;;;;;;;;;;4348907;32;20030;-68
2022/09/27 04:55:19;;;;;;;9.20;2.35;;;;;;;;;;4362477;32;20082;-68
2022/09/27 04:57:45;;;;;;;14.55;4.03;;;;;;;;;;4361084;33;20036;-68
2022/09/27 05:00:10;;;;;;;;;;;;;;;;;;4360991;32;20035;-68
2022/09/27 05:02:35;;;;;;;14.20;3.20;;;;;;;;;;4355549;33;19958;-67
2022/09/27 05:05:00;;;;;;;12.85;3.33;;;;;;;;;;4354628;33;20027;-69
2022/09/27 05:07:26;;;;;;;10.15;2.15;;;;;;;;;;4347684;33;20913;-68
2022/09/27 05:09:51;;;;;;;;;;;;;;;;;;4346968;33;20138;-68
2022/09/27 05:12:17;;;;;;;10.30;2.55;;;;;;;;;;4345803;33;19935;-68
2022/09/27 05:14:42;;;;;;;;;;;;;;;;;;4346212;33;20062;-68
2022/09/27 05:17:07;;;;;;;10.25;1.90;;;;;;;;;;4333766;33;20011;-67
2022/09/27 05:19:33;;;;;;;9.48;2.35;;;;;;;;;;4336339;33;20050;-68
2022/09/27 05:21:58;;;;;;;;;;;;;;;;;;4348942;32;20430;-67
2022/09/27 05:24:23;;;;;;;9.13;2.67;;;;;;;;;;4360447;32;20253;-67
2022/09/27 05:26:48;;;;;;;12.55;2.50;;;;;;;;;;4353805;32;20024;-67
2022/09/27 05:29:13;;;;;;;;;;;;;;;;;;4353737;32;20106;-67
2022/09/27 05:31:39;;;;;;;10.55;2.03;;;;;;;;;;4341424;33;19971;-69
2022/09/27 05:34:09;;;;;;;9.73;1.85;;;;;;;;;;4360995;32;20027;-68
2022/09/27 05:36:35;;;;;;;15.90;3.22;;;;;;;;;;4348078;32;20045;-68
2022/09/27 05:39:00;;;;;;;;;;;;;;;;;;4360775;32;20052;-69
2022/09/27 05:41:25;;;;;;;9.32;1.85;;;;;;;;;;4360337;32;19954;-68
2022/09/27 05:43:51;;;;;;;6.40;1.70;;;;;;;;;;4360446;32;20031;-68
2022/09/27 05:46:16;;;;;;;;;;;;;;;;;;4347731;32;20091;-68
2022/09/27 05:48:41;;;;;;;6.10;1.70;;;;;;;;;;4361766;32;19942;-69
2022/09/27 05:51:06;;;;;;;9.20;1.83;;;;;;;;;;4360371;33;20448;-67
2022/09/27 05:53:31;;;;;;;;;;;;;;;;;;4347932;32;20079;-67
2022/09/27 05:56:00;;;;;;;7.25;2.00;;;;;;;;;;4361009;32;19945;-69
2022/09/27 05:58:27;;;;;;;7.18;1.98;;;;;;;;;;4351339;32;20136;-67
2022/09/27 06:00:52;;;;;;;9.00;2.40;;;;;;;;;;4359922;32;20069;-68
2022/09/27 06:03:17;;;;;;;;;;;;;;;;;;4359751;32;20480;-67
2022/09/27 06:05:42;;;;;;;14.20;2.70;;;;;;;;;;4359442;33;20021;-69
2022/09/27 06:08:09;;;;;;;10.20;2.87;;;;;;;;;;4358845;32;20039;-67
2022/09/27 06:10:34;;;;;;;12.45;2.85;;;;;;;;;;4345490;33;20089;-67
2022/09/27 06:13:01;;;;;;;;;;;;;;;;;;4345962;32;20047;-67
2022/09/27 06:15:26;;;;;;;15.07;2.90;;;;;;;;;;4358498;33;19951;-68
2022/09/27 06:17:51;;;;;;;;;;;;;;;;;;4359789;32;20076;-67
2022/09/27 06:20:17;;;;;;;12.80;2.60;;;;;;;;;;4358298;32;19973;-67
2022/09/27 06:22:42;;;;;;;;;;;;;;;;;;4347260;32;20489;-68
2022/09/27 06:25:08;;;;;;;22.37;5.60;;;;;;;;;;4357936;32;20312;-69
2022/09/27 06:27:33;;;;;;;12.93;3.33;;;;;;;;;;4360183;32;20483;-68
2022/09/27 06:29:59;;;;;;;;;;;;;;;;;;4360397;32;20032;-68
2022/09/27 06:32:24;;;;;;;13.93;2.83;;;;;;;;;;4359713;32;19943;-67
2022/09/27 06:34:49;;;;;;;;;;;;;;;;;;4361620;32;20073;-67
2022/09/27 06:37:14;;;;;;;22.83;4.18;;;;;;;;;;4360909;32;19943;-68
2022/09/27 06:39:39;;;;;;;18.08;2.80;;;;;;;;;;4343088;33;20103;-68
2022/09/27 06:42:04;;;;;;;9.98;2.80;;;;;;;;;;4344621;33;20058;-68
2022/09/27 06:44:29;;;;;;;;;;;;;;;;;;4346162;33;20085;-66
2022/09/27 06:46:55;;;;;;;11.12;3.30;;;;;;;;;;4345821;33;19938;-66
2022/09/27 06:49:21;;;;;;;;;;;;;;;;;;4343443;33;20123;-67
2022/09/27 06:51:47;;;;;;;7.80;2.45;;;;;;;;;;4344726;33;20261;-67
2022/09/27 06:54:12;;;;;;;;;;;;;;;;;;4346111;33;20070;-67
2022/09/27 06:56:37;;;;;;;8.15;2.15;;;;;;;;;;4344971;33;19977;-67
2022/09/27 07:01:46;;;;;;;17.08;3.17;;;;;;;;;;4345980;33;19965;-67
2022/09/27 07:04:12;;;;;;;;;;;;;;;;;;4345315;33;20067;-66
2022/09/27 07:06:37;;;;;;;8.60;2.67;;;;;;;;;;4345222;33;19943;-66
2022/09/27 07:09:02;;;;;;;;;;;;;;;;;;4345073;33;20083;-66
2022/09/27 07:11:27;;;;;;;13.93;3.17;;;;;;;;;;4344850;33;19981;-66
2022/09/27 07:13:52;;;;;;;12.85;2.40;;;;;;;;;;4344653;33;20094;-66
2022/09/27 07:16:18;;;;;;;13.40;3.72;;;;;;;;;;4342736;33;20378;-67
2022/09/27 07:18:43;;;;;;;9.95;3.00;;;;;;;;;;4343243;33;20039;-67
2022/09/27 07:21:08;;;;;;;;;;;;;;;;;;4345656;33;20085;-67
2022/09/27 07:23:35;;;;;;;9.07;2.72;;;;;;;;;;4346895;33;19930;-67
2022/09/27 07:26:03;;;;;;;4.82;2.35;;;;;;;;;;4348089;32;20128;-67
2022/09/27 07:28:28;;;;;;;6.57;1.70;;;;;;;;;;4348433;32;20418;-68
2022/09/27 07:30:53;;;;;;;;;;;;;;;;;;4347792;32;20057;-67
2022/09/27 07:33:18;;;;;;;7.72;2.28;;;;;;;;;;4348563;32;19943;-68
2022/09/27 07:35:44;;;;;;;10.82;3.33;;;;;;;;;;4349108;33;20061;-68
2022/09/27 07:38:12;;;;;;;14.75;3.05;;;;;;;;;;4352401;32;20077;-68
2022/09/27 07:40:37;;;;;;;10.50;2.17;;;;;;;;;;4362751;32;20055;-69
2022/09/27 07:43:03;;;;;;;;;;;;;;;;;;4362156;32;20089;-69
2022/09/27 07:45:28;;;;;;;6.53;2.05;;;;;;;;;;4363165;32;19938;-69
2022/09/27 07:47:53;;;;;;;;;;;;;;;;;;4363044;32;20047;-68
2022/09/27 07:50:19;;;;;;;8.38;1.55;;;;;;;;;;4359488;32;19934;-67
2022/09/27 07:52:44;;;;;;;;;;;;;;;;;;4348746;33;20070;-69
2022/09/27 07:55:10;;;;;;;9.00;1.60;;;;;;;;;;4347457;33;19945;-68
2022/09/27 07:57:35;;;;;;;7.93;1.40;;;;;;;;;;4346836;33;20410;-68
2022/09/27 08:00:01;;;;;;;7.95;2.28;;;;;;;;;;4348784;33;20093;-68
2022/09/27 08:02:26;;;;;;;;;;;;;;;;;;4348237;33;20035;-68
2022/09/27 08:04:52;;;;;;;8.35;1.52;;;;;;;;;;4356355;33;19946;-68
2022/09/27 08:07:17;;;;;;;6.70;1.40;;;;;;;;;;4348976;32;20081;-68
2022/09/27 08:09:42;;;;;;;;;;;;;;;;;;4363852;32;20031;-66
2022/09/27 08:12:08;;;;;;;8.68;2.62;;;;;;;;;;4362962;32;19973;-66
2022/09/27 08:14:34;;;;;;;13.38;2.78;;;;;;;;;;4361347;32;20123;-67
2022/09/27 08:16:59;;;;;;;;;;;;;;;;;;4347898;33;20057;-67
2022/09/27 08:19:25;;;;;;;8.48;1.85;;;;;;;;;;4362789;32;20281;-67
2022/09/27 08:21:50;;;;;;;;;;;;;;;;;;4362963;32;20514;-67
2022/09/27 08:24:15;;;;;;;12.60;2.35;;;;;;;;;;4361558;32;19934;-67
2022/09/27 08:26:40;;;;;;;10.50;2.00;;;;;;;;;;4363292;32;20027;-67
2022/09/27 08:29:05;;;;;;;9.88;4.47;;;;;;;;;;4361253;33;20069;-67
2022/09/27 08:31:31;;;;;;;;;;;;;;;;;;4361903;32;20027;-67
2022/09/27 08:33:56;;;;;;;8.02;2.03;;;;;;;;;;4362099;32;20001;-68
2022/09/27 08:36:23;;;;;;;5.32;1.23;;;;;;;;;;4348763;32;20113;-68
2022/09/27 08:38:50;;;;;;;8.93;2.37;;;;;;;;;;4362067;32;20114;-68
2022/09/27 08:41:25;;;;;;;8.10;2.28;;;;;;;;;;4362679;32;20031;-68
2022/09/27 08:44:05;;;;;;;6.47;1.45;;;;;;;;;;4361668;32;20027;-68
2022/09/27 08:46:50;;;;;;;8.43;1.65;;;;;;;;;;4362699;32;20031;-68
2022/09/27 08:49:24;;;;;;;12.35;2.72;;;;;;;;;;4361891;32;20059;-68
2022/09/27 08:51:51;;;;;;;7.78;2.03;;;;;;;;;;4361013;32;20465;-68
2022/09/27 08:54:19;;;;;;;7.82;2.17;;;;;;;;;;4360774;32;20061;-70
2022/09/27 08:56:46;;;;;;;11.25;2.22;;;;;;;;;;4360889;32;20455;-68
2022/09/27 08:59:13;;;;;;;6.97;1.90;;;;;;;;;;4360801;32;20038;-68
2022/09/27 09:01:39;;;;;;;14.48;2.80;;;;;;;;;;4362262;32;20039;-68
2022/09/27 09:04:04;;;;;;;;;;;;;;;;;;4347280;33;20057;-71
2022/09/27 09:06:41;;;;;;;8.30;1.85;;;;;;;;;;4360659;33;19935;-68
2022/09/27 09:09:26;;;;;;;9.27;2.40;;;;;;;;;;4362773;32;20127;-67
2022/09/27 09:14:47;;;;;;;6.05;2.00;;;;;;;;;;4362145;32;20099;-67
2022/09/27 09:17:13;;;;;;;11.20;2.92;;;;;;;;;;4346775;33;20124;-67
2022/09/27 09:19:38;;;;;;;;;;;;;;;;;;4362089;32;20042;-66
2022/09/27 09:22:15;;;;;;;12.45;2.30;;;;;;;;;;4360529;33;19939;-67
2022/09/27 09:25:09;;;;;;;11.27;2.75;;;;;;;;;;4362384;32;20128;-66
2022/09/27 09:27:37;;;;;;;8.23;2.28;;;;;;;;;;4347054;33;20069;-67
2022/09/27 09:30:11;;;;;;;8.45;2.33;;;;;;;;;;4361903;32;20024;-67
2022/09/27 09:32:38;;;;;;;9.88;1.92;;;;;;;;;;4360670;32;20066;-66
2022/09/27 09:35:06;;;;;;;7.18;2.00;;;;;;;;;;4360094;32;20039;-67
2022/09/27 09:37:37;;;;;;;13.23;2.45;;;;;;;;;;4361709;32;20035;-66
2022/09/27 09:40:25;;;;;;;10.52;2.62;;;;;;;;;;4360053;32;20132;-66
2022/09/27 09:43:20;;;;;;;7.72;2.03;;;;;;;;;;4353907;32;20039;-66
2022/09/27 09:45:50;;;;;;;12.15;2.08;;;;;;;;;;4349018;32;20440;-67
2022/09/27 09:48:34;;;;;;;10.02;5.43;;;;;;;;;;4361722;32;20073;-66
2022/09/27 09:51:00;;;;;;;16.58;1.85;;;;;;;;;;4360151;32;20085;-64
2022/09/27 09:53:33;;;;;;;8.07;1.95;;;;;;;;;;4360440;32;20058;-67
2022/09/27 09:56:04;;;;;;;8.32;1.92;;;;;;;;;;4348095;32;20389;-66
2022/09/27 09:58:42;;;;;;;8.60;1.87;;;;;;;;;;4361227;32;20061;-66
2022/09/27 10:01:15;;;;;;;12.37;2.05;;;;;;;;;;4346141;33;20494;-66
2022/09/27 10:03:40;;;;;;;10.40;2.60;;;;;;;;;;4359941;32;20377;-66
2022/09/27 10:06:05;;;;;;;;;;;;;;;;;;4359945;32;20031;-67
2022/09/27 10:08:31;;;;;;;16.08;2.72;;;;;;;;;;4361180;32;19958;-68
2022/09/27 10:10:57;;;;;;;10.20;2.78;;;;;;;;;;4346344;33;20065;-67
2022/09/27 10:13:22;;;;;;;;;;;;;;;;;;4360258;32;20066;-67
2022/09/27 10:15:59;;;;;;;4.80;1.90;;;;;;;;;;4360697;32;19985;-66
2022/09/27 10:18:26;;;;;;;12.88;2.33;;;;;;;;;;4360386;32;20035;-67
2022/09/27 10:20:54;;;;;;;12.25;2.12;;;;;;;;;;4347950;32;20138;-67
2022/09/27 10:23:20;;;;;;;7.00;2.05;;;;;;;;;;4359555;32;20088;-69
2022/09/27 10:25:52;;;;;;;15.10;2.60;;;;;;;;;;4359708;32;20155;-68
2022/09/27 10:28:36;;;;;;;9.25;2.72;;;;;;;;;;4360281;32;20024;-68
2022/09/27 10:31:04;;;;;;;6.70;2.95;;;;;;;;;;4360576;32;20039;-69
2022/09/27 10:33:30;;;;;;;10.25;2.55;;;;;;;;;;4361425;32;20361;-68
2022/09/27 10:35:56;;;;;;;7.93;2.12;;;;;;;;;;4361457;32;20057;-67
2022/09/27 10:38:21;;;;;;;;;;;;;;;;;;4360896;32;20047;-67
2022/09/27 10:40:47;;;;;;;6.40;2.67;;;;;;;;;;4359430;33;19943;-67
2022/09/27 10:43:33;;;;;;;11.10;3.05;;;;;;;;;;4359937;33;20163;-68
2022/09/27 10:46:00;;;;;;;10.75;2.40;;;;;;;;;;4359425;33;20345;-68
2022/09/27 10:48:25;;;;;;;10.95;2.10;;;;;;;;;;4359947;33;20031;-69
2022/09/27 10:50:50;;;;;;;;;;;;;;;;;;4360179;33;20361;-67
2022/09/27 10:53:18;;;;;;;6.87;2.03;;;;;;;;;;4360954;33;19942;-68
2022/09/27 10:55:46;;;;;;;8.07;2.37;;;;;;;;;;4347000;33;20070;-67
2022/09/27 10:58:17;;;;;;;9.10;3.37;;;;;;;;;;4360544;32;20026;-68
2022/09/27 11:00:42;;;;;;;8.50;2.80;;;;;;;;;;4364591;32;20447;-66
2022/09/27 11:03:07;;;;;;;;;;;;;;;;;;4364622;32;20032;-66
2022/09/27 11:05:34;;;;;;;7.50;2.10;;;;;;;;;;4348818;33;19978;-67
2022/09/27 11:08:18;;;;;;;4.87;2.10;;;;;;;;;;4362722;32;20114;-68
2022/09/27 11:10:58;;;;;;;6.62;1.87;;;;;;;;;;4364130;32;20027;-66
2022/09/27 11:13:23;;;;;;;5.47;2.05;;;;;;;;;;4349146;33;20031;-67
2022/09/27 11:15:49;;;;;;;;;;;;;;;;;;4363228;32;20101;-68
2022/09/27 11:18:27;;;;;;;8.63;2.80;;;;;;;;;;4364250;32;19938;-68
2022/09/27 11:20:58;;;;;;;6.22;1.60;;;;;;;;;;4362319;32;20145;-68
2022/09/27 11:23:45;;;;;;;6.07;2.60;;;;;;;;;;4364413;32;20113;-68
2022/09/27 11:26:10;;;;;;;;;;;;;;;;;;4364749;32;20077;-67
2022/09/27 11:28:38;;;;;;;4.37;2.17;;;;;;;;;;4362331;32;19947;-67
2022/09/27 11:31:23;;;;;;;4.57;1.33;;;;;;;;;;4364227;32;20098;-66
2022/09/27 11:34:01;;;;;;;5.50;1.65;;;;;;;;;;4350183;32;20057;-67
2022/09/27 11:36:45;;;;;;;1.50;0.93;;;;;;;;;;4363361;32;20062;-67
2022/09/27 11:39:45;;;;;;;4.32;1.27;;;;;;;;;;4348532;33;20043;-66
2022/09/27 11:42:32;;;;;;;6.30;1.60;;;;;;;;;;4302732;33;20125;-66
2022/09/27 11:44:57;;;;;;;6.43;2.05;;;;;;;;;;4358178;33;20433;-67
2022/09/27 11:47:22;;;;;;;;;;;;;;;;;;4362450;32;20122;-67
2022/09/27 11:49:59;;;;;;;5.70;1.50;;;;;;;;;;4363486;32;19950;-67
2022/09/27 11:52:37;;;;;;;7.28;1.50;;;;;;;;;;4362366;32;20522;-66
2022/09/27 11:55:11;;;;;;;5.20;2.08;;;;;;;;;;4361773;32;20027;-66
2022/09/27 11:57:51;;;;;;;9.75;2.10;;;;;;;;;;4363081;32;20403;-66
2022/09/27 12:00:20;;;;;;;2.83;1.10;;;;;;;;;;4363647;32;20027;-66
2022/09/27 12:02:48;;;;;;;5.18;2.25;;;;;;;;;;4362835;32;20065;-67
2022/09/27 12:05:16;;;;;;;2.12;1.50;;;;;;;;;;4361553;32;20058;-67
2022/09/27 12:07:44;;;;;;;6.65;1.90;;;;;;;;;;4347693;33;20031;-65
2022/09/27 12:10:12;;;;;;;3.37;1.20;;;;;;;;;;4360996;32;20031;-65
2022/09/27 12:12:40;;;;;;;5.20;1.45;;;;;;;;;;4362852;32;20118;-66
2022/09/27 12:15:11;;;;;;;3.55;1.15;;;;;;;;;;4363005;32;20322;-66
2022/09/27 12:17:38;;;;;;;4.12;0.98;;;;;;;;;;4363237;32;20086;-66
2022/09/27 12:20:13;;;;;;;3.10;1.10;;;;;;;;;;4361493;32;20065;-64
2022/09/27 12:22:51;;;;;;;6.47;1.30;;;;;;;;;;4361627;33;20023;-64
2022/09/27 12:25:17;;;;;;;3.87;1.40;;;;;;;;;;4347465;33;20054;-65
2022/09/27 12:27:42;;;;;;;;;;;;;;;;;;4363096;32;20125;-65
2022/09/27 12:30:11;;;;;;;4.87;1.30;;;;;;;;;;4362931;32;19948;-66
2022/09/27 12:32:43;;;;;;;5.45;1.35;;;;;;;;;;4360994;32;20154;-65
2022/09/27 12:35:21;;;;;;;5.82;1.75;;;;;;;;;;4361788;32;20110;-65
2022/09/27 12:38:01;;;;;;;4.37;1.58;;;;;;;;;;4362345;32;20053;-65
2022/09/27 12:40:33;;;;;;;3.10;1.33;;;;;;;;;;4362296;32;20031;-64
2022/09/27 12:43:12;;;;;;;3.95;1.50;;;;;;;;;;4360939;32;20031;-64
2022/09/27 12:45:55;;;;;;;4.00;1.55;;;;;;;;;;4362901;32;20019;-64
2022/09/27 12:48:23;;;;;;;3.42;1.25;;;;;;;;;;4363000;32;20322;-64
2022/09/27 12:50:54;;;;;;;4.18;2.08;;;;;;;;;;4361968;32;20046;-65
2022/09/27 12:53:22;;;;;;;4.50;2.00;;;;;;;;;;4362049;32;20374;-64
2022/09/27 12:55:50;;;;;;;3.83;1.80;;;;;;;;;;4360411;32;20051;-65
2022/09/27 12:58:41;;;;;;;4.90;1.85;;;;;;;;;;4360326;32;20039;-64
2022/09/27 13:01:10;;;;;;;6.72;2.20;;;;;;;;;;4357750;32;20057;-64
2022/09/27 13:03:54;;;;;;;4.37;1.80;;;;;;;;;;4361297;32;20098;-64
2022/09/27 13:06:39;;;;;;;8.60;1.92;;;;;;;;;;4360726;33;20023;-63
2022/09/27 13:09:23;;;;;;;6.05;1.83;;;;;;;;;;4361846;32;20031;-64
2022/09/27 13:11:48;;;;;;;5.80;1.60;;;;;;;;;;4360674;32;20015;-64
2022/09/27 13:14:13;;;;;;;;;;;;;;;;;;4348333;32;20160;-63
2022/09/27 13:16:42;;;;;;;8.93;1.70;;;;;;;;;;4361655;32;20248;-63
2022/09/27 13:19:21;;;;;;;5.80;1.58;;;;;;;;;;4361668;32;20054;-63
2022/09/27 13:21:55;;;;;;;6.65;1.45;;;;;;;;;;4361607;32;20095;-62
2022/09/27 13:24:42;;;;;;;10.85;2.10;;;;;;;;;;4360790;32;20077;-63
2022/09/27 13:27:26;;;;;;;4.20;1.92;;;;;;;;;;4360380;33;20027;-64
2022/09/27 13:29:51;;;;;;;5.47;1.98;;;;;;;;;;4362537;32;20066;-65
2022/09/27 13:32:16;;;;;;;;;;;;;;;;;;4361440;32;20102;-63
2022/09/27 13:34:42;;;;;;;9.48;2.05;;;;;;;;;;4361680;32;19983;-63
2022/09/27 13:37:07;;;;;;;;;;;;;;;;;;4347008;33;20434;-63
2022/09/27 13:39:32;;;;;;;9.60;2.03;;;;;;;;;;4361309;32;19968;-62
2022/09/27 13:42:03;;;;;;;11.12;2.35;;;;;;;;;;4360577;32;20169;-62
2022/09/27 13:44:47;;;;;;;11.82;3.62;;;;;;;;;;4348430;32;20353;-63
2022/09/27 13:47:18;;;;;;;8.88;2.33;;;;;;;;;;4361699;32;20074;-63
2022/09/27 13:49:45;;;;;;;6.05;1.77;;;;;;;;;;4360507;32;20102;-63
2022/09/27 13:52:19;;;;;;;6.85;2.12;;;;;;;;;;4359561;32;20050;-63
2022/09/27 13:54:55;;;;;;;11.90;2.58;;;;;;;;;;4361632;32;20323;-64
2022/09/27 13:57:39;;;;;;;5.43;1.60;;;;;;;;;;4360287;32;20349;-64
2022/09/27 14:00:07;;;;;;;11.85;2.35;;;;;;;;;;4360696;32;20151;-63
2022/09/27 14:02:38;;;;;;;12.27;2.78;;;;;;;;;;4360309;32;20464;-64
2022/09/27 14:05:08;;;;;;;11.00;2.58;;;;;;;;;;4360506;32;20045;-64
2022/09/27 14:07:35;;;;;;;8.50;2.47;;;;;;;;;;4346361;33;20051;-65
2022/09/27 14:10:02;;;;;;;10.90;2.90;;;;;;;;;;4360562;32;20053;-63
2022/09/27 14:12:30;;;;;;;9.30;2.03;;;;;;;;;;4361570;32;20069;-64
2022/09/27 14:14:56;;;;;;;8.98;2.10;;;;;;;;;;4359990;32;20024;-64
2022/09/27 14:17:22;;;;;;;;;;;;;;;;;;4360431;32;20062;-64
2022/09/27 14:19:48;;;;;;;7.20;1.92;;;;;;;;;;4360954;32;19973;-64
2022/09/27 14:22:14;;;;;;;9.27;2.85;;;;;;;;;;4359967;32;20058;-63
2022/09/27 14:24:39;;;;;;;7.15;2.33;;;;;;;;;;4361675;32;20077;-63
2022/09/27 14:27:25;;;;;;;11.98;3.12;;;;;;;;;;4360937;32;20381;-64
2022/09/27 14:30:07;;;;;;;6.93;2.12;;;;;;;;;;4359817;32;20194;-64
2022/09/27 14:32:33;;;;;;;18.42;2.72;;;;;;;;;;4359342;32;20046;-64
2022/09/27 14:38:03;;;;;;;8.68;2.10;;;;;;;;;;4360903;32;20089;-63
2022/09/27 14:40:28;;;;;;;8.57;2.00;;;;;;;;;;4361339;32;20377;-63
2022/09/27 14:42:53;;;;;;;;;;;;;;;;;;4359984;32;20072;-62
2022/09/27 14:45:25;;;;;;;11.30;2.70;;;;;;;;;;4360387;33;20241;-63
2022/09/27 14:47:50;;;;;;;17.85;2.75;;;;;;;;;;4361294;33;20023;-62
2022/09/27 14:50:24;;;;;;;8.38;1.87;;;;;;;;;;4360712;33;20027;-63
2022/09/27 14:52:54;;;;;;;12.02;2.70;;;;;;;;;;4361071;33;20108;-63
2022/09/27 14:55:20;;;;;;;10.50;2.75;;;;;;;;;;4359685;33;20031;-63
2022/09/27 14:57:50;;;;;;;8.25;2.30;;;;;;;;;;4359428;33;20061;-62
2022/09/27 15:00:25;;;;;;;11.77;2.70;;;;;;;;;;4361530;33;20027;-62
2022/09/27 15:02:53;;;;;;;10.68;3.55;;;;;;;;;;4359261;33;20023;-63
2022/09/27 15:05:20;;;;;;;8.18;1.73;;;;;;;;;;4358794;33;20488;-64
2022/09/27 15:07:46;;;;;;;15.50;2.58;;;;;;;;;;4345754;33;20069;-63
2022/09/27 15:10:11;;;;;;;;;;;;;;;;;;4360023;33;20015;-64
2022/09/27 15:12:37;;;;;;;12.93;3.00;;;;;;;;;;4360224;33;19938;-64
2022/09/27 15:15:05;;;;;;;10.30;2.78;;;;;;;;;;4360785;33;20059;-63
2022/09/27 15:17:39;;;;;;;10.38;2.55;;;;;;;;;;4360974;33;20053;-63
2022/09/27 15:20:20;;;;;;;8.68;2.72;;;;;;;;;;4347182;33;20023;-64
2022/09/27 15:22:46;;;;;;;9.20;2.90;;;;;;;;;;4359615;33;20090;-63
2022/09/27 15:25:11;;;;;;;;;;;;;;;;;;4361131;33;20031;-63